createdAt,value
2016-04-18T00:00:04.646Z,87.63
2016-04-18T00:00:14.646Z,87.63
2016-04-18T00:00:24.646Z,87.63
2016-04-18T00:00:34.646Z,87.63
2016-04-18T00:00:44.648Z,87.45
2016-04-18T00:00:54.664Z,87.54
2016-04-18T00:01:04.664Z,87.45
2016-04-18T00:01:14.664Z,87.45
2016-04-18T00:01:24.664Z,87.63
2016-04-18T00:01:34.664Z,87.63
2016-04-18T00:01:44.682Z,87.63
2016-04-18T00:01:54.682Z,87.63
2016-04-18T00:02:04.682Z,87.63
2016-04-18T00:02:14.698Z,87.68
2016-04-18T00:02:24.698Z,87.54
2016-04-18T00:02:34.698Z,87.63
2016-04-18T00:02:44.701Z,87.63
2016-04-18T00:02:54.701Z,87.45
2016-04-18T00:03:04.701Z,87.63
2016-04-18T00:03:14.716Z,87.73
2016-04-18T00:03:24.716Z,87.54
2016-04-18T00:03:34.732Z,87.92
2016-04-18T00:03:44.734Z,87.63
2016-04-18T00:03:54.734Z,87.73
2016-04-18T00:04:04.734Z,87.63
2016-04-18T00:04:14.750Z,87.63
2016-04-18T00:04:24.750Z,87.68
2016-04-18T00:04:34.750Z,87.68
2016-04-18T00:04:44.754Z,87.68
2016-04-18T00:04:54.769Z,87.68
2016-04-18T00:05:04.785Z,87.59
2016-04-18T00:05:14.769Z,87.63
2016-04-18T00:05:24.769Z,87.63
2016-04-18T00:05:34.785Z,87.63
2016-04-18T00:05:44.787Z,88.25
2016-04-18T00:05:54.787Z,88.1
2016-04-18T00:06:04.787Z,87.87
2016-04-18T00:06:14.803Z,87.97
2016-04-18T00:06:24.803Z,87.92
2016-04-18T00:06:34.803Z,87.92
2016-04-18T00:06:44.806Z,87.92
2016-04-18T00:06:54.806Z,87.82
2016-04-18T00:07:04.821Z,87.82
2016-04-18T00:07:14.821Z,87.92
2016-04-18T00:07:24.821Z,87.82
2016-04-18T00:07:34.821Z,87.87
2016-04-18T00:07:44.840Z,87.92
2016-04-18T00:07:54.840Z,87.92
2016-04-18T00:08:04.840Z,87.87
2016-04-18T00:08:14.855Z,88.06
2016-04-18T00:08:24.855Z,88.06
2016-04-18T00:08:34.871Z,88.06
2016-04-18T00:08:44.967Z,88.1
2016-04-18T00:08:54.982Z,88.1
2016-04-18T00:09:04.873Z,88.1
2016-04-18T00:09:14.873Z,87.97
2016-04-18T00:09:24.123Z,88.1
2016-04-18T00:09:34.889Z,88.06
2016-04-18T00:09:44.892Z,88.1
2016-04-18T00:09:54.892Z,88.01
2016-04-18T00:10:04.892Z,87.87
2016-04-18T00:10:14.907Z,87.87
2016-04-18T00:10:24.907Z,87.87
2016-04-18T00:10:34.907Z,88.1
2016-04-18T00:10:44.909Z,88.01
2016-04-18T00:10:54.909Z,87.97
2016-04-18T00:11:04.925Z,88.01
2016-04-18T00:11:14.925Z,88.01
2016-04-18T00:11:24.925Z,87.82
2016-04-18T00:11:34.925Z,87.87
2016-04-18T00:11:44.928Z,87.87
2016-04-18T00:11:54.944Z,87.87
2016-04-18T00:12:04.944Z,88.06
2016-04-18T00:12:14.944Z,87.97
2016-04-18T00:12:24.944Z,87.87
2016-04-18T00:12:34.959Z,88.06
2016-04-18T00:12:44.961Z,87.77
2016-04-18T00:12:54.961Z,87.87
2016-04-18T00:13:04.977Z,87.97
2016-04-18T00:13:14.821Z,87.77
2016-04-18T00:13:24.977Z,87.87
2016-04-18T00:13:34.992Z,87.68
2016-04-18T00:13:44.995Z,87.77
2016-04-18T00:13:54.995Z,87.68
2016-04-18T00:14:04.995Z,87.87
2016-04-18T00:14:15.011Z,88.25
2016-04-18T00:14:25.011Z,88.35
2016-04-18T00:14:35.011Z,88.44
2016-04-18T00:14:45.035Z,88.44
2016-04-18T00:14:55.035Z,88.35
2016-04-18T00:15:05.051Z,88.25
2016-04-18T00:15:15.051Z,87.97
2016-04-18T00:15:25.051Z,88.54
2016-04-18T00:15:35.051Z,88.63
2016-04-18T00:15:45.096Z,88.44
2016-04-18T00:15:55.111Z,88.35
2016-04-18T00:16:05.111Z,88.54
2016-04-18T00:16:15.111Z,88.63
2016-04-18T00:16:25.127Z,88.44
2016-04-18T00:16:35.127Z,88.63
2016-04-18T00:16:45.173Z,88.54
2016-04-18T00:16:55.173Z,88.25
2016-04-18T00:17:05.173Z,88.35
2016-04-18T00:17:15.189Z,88.35
2016-04-18T00:17:25.189Z,88.25
2016-04-18T00:17:35.189Z,88.16
2016-04-18T00:17:45.250Z,88.16
2016-04-18T00:17:55.250Z,88.16
2016-04-18T00:18:05.266Z,88.16
2016-04-18T00:18:15.266Z,88.35
2016-04-18T00:18:25.266Z,88.54
2016-04-18T00:18:35.266Z,88.25
2016-04-18T00:18:45.312Z,88.54
2016-04-18T00:18:55.312Z,88.06
2016-04-18T00:19:05.327Z,88.25
2016-04-18T00:19:15.327Z,88.35
2016-04-18T00:19:25.327Z,88.35
2016-04-18T00:19:35.327Z,88.44
2016-04-18T00:19:45.375Z,88.44
2016-04-18T00:19:55.375Z,88.54
2016-04-18T00:20:07.656Z,88.44
2016-04-18T00:20:17.625Z,88.82
2016-04-18T00:20:27.625Z,88.63
2016-04-18T00:20:37.625Z,88.63
2016-04-18T00:20:47.659Z,88.73
2016-04-18T00:20:57.502Z,88.54
2016-04-18T00:21:07.659Z,88.63
2016-04-18T00:21:17.659Z,88.63
2016-04-18T00:21:27.659Z,88.82
2016-04-18T00:21:37.674Z,88.82
2016-04-18T00:21:47.692Z,88.63
2016-04-18T00:21:57.692Z,89.01
2016-04-18T00:22:07.692Z,89.01
2016-04-18T00:22:17.692Z,88.73
2016-04-18T00:22:27.708Z,88.73
2016-04-18T00:22:37.708Z,88.82
2016-04-18T00:22:47.726Z,88.63
2016-04-18T00:22:57.742Z,88.82
2016-04-18T00:23:07.742Z,89.11
2016-04-18T00:23:17.742Z,88.82
2016-04-18T00:23:27.742Z,89.2
2016-04-18T00:23:37.742Z,89.11
2016-04-18T00:23:47.948Z,89.11
2016-04-18T00:23:57.729Z,89.11
2016-04-18T00:24:07.776Z,89.11
2016-04-18T00:24:17.792Z,89.29
2016-04-18T00:24:27.792Z,89.11
2016-04-18T00:24:37.792Z,89.29
2016-04-18T00:24:47.805Z,89.48
2016-04-18T00:24:57.805Z,89.39
2016-04-18T00:25:07.820Z,89.01
2016-04-18T00:25:17.820Z,89.11
2016-04-18T00:25:27.820Z,89.29
2016-04-18T00:25:37.820Z,89.2
2016-04-18T00:25:47.844Z,88.82
2016-04-18T00:25:57.844Z,89.2
2016-04-18T00:26:07.844Z,88.73
2016-04-18T00:26:17.860Z,89.11
2016-04-18T00:26:27.860Z,89.2
2016-04-18T00:26:37.860Z,88.92
2016-04-18T00:26:47.884Z,89.11
2016-04-18T00:26:57.869Z,89.11
2016-04-18T00:27:07.884Z,89.11
2016-04-18T00:27:17.884Z,89.11
2016-04-18T00:27:27.884Z,89.01
2016-04-18T00:27:37.900Z,88.82
2016-04-18T00:27:47.908Z,89.01
2016-04-18T00:27:57.908Z,88.92
2016-04-18T00:28:07.908Z,89.48
2016-04-18T00:28:17.908Z,89.2
2016-04-18T00:28:27.924Z,89.48
2016-04-18T00:28:37.924Z,89.29
2016-04-18T00:28:47.933Z,89.29
2016-04-18T00:28:57.933Z,89.77
2016-04-18T00:29:07.948Z,89.48
2016-04-18T00:29:17.948Z,89.58
2016-04-18T00:29:27.948Z,89.48
2016-04-18T00:29:37.948Z,89.48
2016-04-18T00:29:47.970Z,89.29
2016-04-18T00:29:57.970Z,89.39
2016-04-18T00:30:07.970Z,89.48
2016-04-18T00:30:17.970Z,89.39
2016-04-18T00:30:27.985Z,89.29
2016-04-18T00:30:37.985Z,89.67
2016-04-18T00:30:47.990Z,89.58
2016-04-18T00:30:57.990Z,89.67
2016-04-18T00:31:08.006Z,89.48
2016-04-18T00:31:18.006Z,89.48
2016-04-18T00:31:28.006Z,89.48
2016-04-18T00:31:38.022Z,89.48
2016-04-18T00:31:48.026Z,89.67
2016-04-18T00:31:58.026Z,89.77
2016-04-18T00:32:08.026Z,89.39
2016-04-18T00:32:18.041Z,89.48
2016-04-18T00:32:28.041Z,89.48
2016-04-18T00:32:38.041Z,89.29
2016-04-18T00:32:48.046Z,89.67
2016-04-18T00:32:58.046Z,89.77
2016-04-18T00:33:08.062Z,89.77
2016-04-18T00:33:18.062Z,89.86
2016-04-18T00:33:28.062Z,89.67
2016-04-18T00:33:38.078Z,89.86
2016-04-18T00:33:48.082Z,90.05
2016-04-18T00:33:58.082Z,89.58
2016-04-18T00:34:08.082Z,89.39
2016-04-18T00:34:18.082Z,89.67
2016-04-18T00:34:28.097Z,89.67
2016-04-18T00:34:38.097Z,89.39
2016-04-18T00:34:48.117Z,89.39
2016-04-18T00:34:58.101Z,89.48
2016-04-18T00:35:08.117Z,89.58
2016-04-18T00:35:18.117Z,89.58
2016-04-18T00:35:28.132Z,89.58
2016-04-18T00:35:38.117Z,90.15
2016-04-18T00:35:48.136Z,89.96
2016-04-18T00:35:58.136Z,89.96
2016-04-18T00:36:08.136Z,90.05
2016-04-18T00:36:18.136Z,89.86
2016-04-18T00:36:28.152Z,89.86
2016-04-18T00:36:38.152Z,90.15
2016-04-18T00:36:48.155Z,89.96
2016-04-18T00:36:58.155Z,90.05
2016-04-18T00:37:08.155Z,90.05
2016-04-18T00:37:18.171Z,90.24
2016-04-18T00:37:28.171Z,89.86
2016-04-18T00:37:38.171Z,89.96
2016-04-18T00:37:48.175Z,90.05
2016-04-18T00:37:58.190Z,89.96
2016-04-18T00:38:08.190Z,89.77
2016-04-18T00:38:18.190Z,89.77
2016-04-18T00:38:28.190Z,89.86
2016-04-18T00:38:38.206Z,89.86
2016-04-18T00:38:48.240Z,89.86
2016-04-18T00:38:58.412Z,89.96
2016-04-18T00:39:08.225Z,89.77
2016-04-18T00:39:18.225Z,90.43
2016-04-18T00:39:28.225Z,90.43
2016-04-18T00:39:38.225Z,90.24
2016-04-18T00:39:48.228Z,90.34
2016-04-18T00:39:58.243Z,90.24
2016-04-18T00:40:08.243Z,90.15
2016-04-18T00:40:18.243Z,90.53
2016-04-18T00:40:28.243Z,90.62
2016-04-18T00:40:38.259Z,90.34
2016-04-18T00:40:48.262Z,90.43
2016-04-18T00:40:58.262Z,90.34
2016-04-18T00:41:08.262Z,90.24
2016-04-18T00:41:18.262Z,90.34
2016-04-18T00:41:28.277Z,90.34
2016-04-18T00:41:38.277Z,90.43
2016-04-18T00:41:48.281Z,90.15
2016-04-18T00:41:58.297Z,90.62
2016-04-18T00:42:08.297Z,90.43
2016-04-18T00:42:18.297Z,90.53
2016-04-18T00:42:28.297Z,89.86
2016-04-18T00:42:38.313Z,90.24
2016-04-18T00:42:48.316Z,90.24
2016-04-18T00:42:58.316Z,90.43
2016-04-18T00:43:08.316Z,90.43
2016-04-18T00:43:18.347Z,90.72
2016-04-18T00:43:28.331Z,90.53
2016-04-18T00:43:38.331Z,90.53
2016-04-18T00:43:48.334Z,90.24
2016-04-18T00:43:58.350Z,90.34
2016-04-18T00:44:08.350Z,90.43
2016-04-18T00:44:18.350Z,90.24
2016-04-18T00:44:28.366Z,90.34
2016-04-18T00:44:38.366Z,90.34
2016-04-18T00:44:48.369Z,90.15
2016-04-18T00:44:58.369Z,90.15
2016-04-18T00:45:08.369Z,90.24
2016-04-18T00:45:18.384Z,90.24
2016-04-18T00:45:28.384Z,90.24
2016-04-18T00:45:38.384Z,90.24
2016-04-18T00:45:48.386Z,90.53
2016-04-18T00:45:58.402Z,90.34
2016-04-18T00:46:08.402Z,90.53
2016-04-18T00:46:18.402Z,90.91
2016-04-18T00:46:28.402Z,90.43
2016-04-18T00:46:38.417Z,90.62
2016-04-18T00:46:48.420Z,90.05
2016-04-18T00:46:58.420Z,90.43
2016-04-18T00:47:08.436Z,90.53
2016-04-18T00:47:18.420Z,90.24
2016-04-18T00:47:28.436Z,90.15
2016-04-18T00:47:38.436Z,90.62
2016-04-18T00:47:48.438Z,90.43
2016-04-18T00:47:58.438Z,90.15
2016-04-18T00:48:08.454Z,90.05
2016-04-18T00:48:18.454Z,90.24
2016-04-18T00:48:28.454Z,90.24
2016-04-18T00:48:38.469Z,90.15
2016-04-18T00:48:48.473Z,90.05
2016-04-18T00:48:58.473Z,90.43
2016-04-18T00:49:08.473Z,90.43
2016-04-18T00:49:18.489Z,90.43
2016-04-18T00:49:28.489Z,90.72
2016-04-18T00:49:38.489Z,90.72
2016-04-18T00:49:48.492Z,90.91
2016-04-18T00:49:58.508Z,90.72
2016-04-18T00:50:08.508Z,90.72
2016-04-18T00:50:18.508Z,90.72
2016-04-18T00:50:28.508Z,90.72
2016-04-18T00:50:38.508Z,90.72
2016-04-18T00:50:48.525Z,90.62
2016-04-18T00:50:58.525Z,90.72
2016-04-18T00:51:08.525Z,90.62
2016-04-18T00:51:18.525Z,90.62
2016-04-18T00:51:28.541Z,90.62
2016-04-18T00:51:38.541Z,90.43
2016-04-18T00:51:48.544Z,90.53
2016-04-18T00:51:58.559Z,90.62
2016-04-18T00:52:08.559Z,90.81
2016-04-18T00:52:18.559Z,90.72
2016-04-18T00:52:28.606Z,91
2016-04-18T00:52:38.575Z,90.62
2016-04-18T00:52:48.577Z,91
2016-04-18T00:52:58.577Z,90.72
2016-04-18T00:53:08.577Z,90.72
2016-04-18T00:53:18.577Z,90.91
2016-04-18T00:53:28.593Z,90.81
2016-04-18T00:53:38.593Z,90.91
2016-04-18T00:53:48.627Z,90.91
2016-04-18T00:53:58.627Z,90.72
2016-04-18T00:54:08.611Z,91
2016-04-18T00:54:18.611Z,90.62
2016-04-18T00:54:28.611Z,90.81
2016-04-18T00:54:38.627Z,90.72
2016-04-18T00:54:48.630Z,90.72
2016-04-18T00:54:58.630Z,91.19
2016-04-18T00:55:08.630Z,91.28
2016-04-18T00:55:17.880Z,91.09
2016-04-18T00:55:28.646Z,91.19
2016-04-18T00:55:38.646Z,91.09
2016-04-18T00:55:48.680Z,91
2016-04-18T00:55:58.649Z,91
2016-04-18T00:56:08.664Z,91.09
2016-04-18T00:56:18.664Z,90.72
2016-04-18T00:56:28.664Z,90.81
2016-04-18T00:56:38.664Z,90.91
2016-04-18T00:56:48.682Z,90.86
2016-04-18T00:56:58.682Z,91.57
2016-04-18T00:57:08.682Z,91.47
2016-04-18T00:57:18.682Z,91.33
2016-04-18T00:57:28.697Z,90.95
2016-04-18T00:57:38.697Z,91.14
2016-04-18T00:57:48.700Z,91.28
2016-04-18T00:57:58.700Z,91.28
2016-04-18T00:58:08.716Z,91.24
2016-04-18T00:58:18.716Z,91.28
2016-04-18T00:58:28.732Z,91.28
2016-04-18T00:58:38.732Z,90.95
2016-04-18T00:58:48.735Z,91.28
2016-04-18T00:58:58.735Z,91.38
2016-04-18T00:59:08.735Z,91.47
2016-04-18T00:59:18.735Z,91.28
2016-04-18T00:59:28.750Z,91.33
2016-04-18T00:59:38.750Z,91.24
2016-04-18T00:59:48.753Z,91.47
2016-04-18T00:59:58.753Z,91.47
2016-04-18T01:00:08.769Z,91.28
2016-04-18T01:00:18.769Z,91.28
2016-04-18T01:00:28.769Z,91.24
2016-04-18T01:00:38.769Z,91.28
2016-04-18T01:00:48.787Z,91.28
2016-04-18T01:00:58.787Z,91.28
2016-04-18T01:01:08.787Z,91.28
2016-04-18T01:01:18.787Z,91.09
2016-04-18T01:01:28.787Z,91.47
2016-04-18T01:01:38.802Z,91.28
2016-04-18T01:01:48.821Z,91.28
2016-04-18T01:01:58.805Z,91.24
2016-04-18T01:02:08.821Z,91.43
2016-04-18T01:02:18.805Z,91.24
2016-04-18T01:02:28.821Z,91.38
2016-04-18T01:02:38.821Z,91.09
2016-04-18T01:02:48.823Z,91.47
2016-04-18T01:02:58.838Z,91.28
2016-04-18T01:03:08.838Z,91.19
2016-04-18T01:03:18.838Z,91.28
2016-04-18T01:03:28.838Z,91.28
2016-04-18T01:03:38.854Z,91.19
2016-04-18T01:03:48.857Z,91.19
2016-04-18T01:03:58.873Z,91.14
2016-04-18T01:04:08.857Z,91.24
2016-04-18T01:04:18.873Z,90.86
2016-04-18T01:04:28.873Z,90.86
2016-04-18T01:04:38.873Z,90.95
2016-04-18T01:04:48.876Z,91.05
2016-04-18T01:04:58.891Z,91.05
2016-04-18T01:05:08.891Z,91.14
2016-04-18T01:05:18.891Z,91.05
2016-04-18T01:05:28.907Z,91.14
2016-04-18T01:05:38.907Z,91.33
2016-04-18T01:05:48.910Z,91.33
2016-04-18T01:05:58.910Z,91.24
2016-04-18T01:06:08.910Z,91.05
2016-04-18T01:06:18.910Z,91.24
2016-04-18T01:06:28.926Z,91.24
2016-04-18T01:06:38.926Z,91.38
2016-04-18T01:06:48.928Z,91.38
2016-04-18T01:06:58.943Z,91.57
2016-04-18T01:07:08.943Z,91.14
2016-04-18T01:07:18.943Z,91.33
2016-04-18T01:07:28.943Z,91.38
2016-04-18T01:07:38.959Z,91.66
2016-04-18T01:07:48.962Z,91.52
2016-04-18T01:07:58.962Z,92.09
2016-04-18T01:08:08.962Z,92.23
2016-04-18T01:08:18.977Z,92.19
2016-04-18T01:08:28.977Z,91.85
2016-04-18T01:08:38.977Z,92
2016-04-18T01:08:49.042Z,92.09
2016-04-18T01:08:59.104Z,91.76
2016-04-18T01:09:08.995Z,92.23
2016-04-18T01:09:18.995Z,91.76
2016-04-18T01:09:28.995Z,91.81
2016-04-18T01:09:39.011Z,91.9
2016-04-18T01:09:49.014Z,92.04
2016-04-18T01:09:59.014Z,91.71
2016-04-18T01:10:09.014Z,91.9
2016-04-18T01:10:19.029Z,91.9
2016-04-18T01:10:29.029Z,91.9
2016-04-18T01:10:39.029Z,91.95
2016-04-18T01:10:49.032Z,92
2016-04-18T01:10:59.032Z,92
2016-04-18T01:11:09.048Z,91.9
2016-04-18T01:11:19.048Z,91.71
2016-04-18T01:11:29.048Z,92
2016-04-18T01:11:39.064Z,91.85
2016-04-18T01:11:49.067Z,91.71
2016-04-18T01:11:59.067Z,91.9
2016-04-18T01:12:09.067Z,91.81
2016-04-18T01:12:19.082Z,91.81
2016-04-18T01:12:29.082Z,91.81
2016-04-18T01:12:39.082Z,91.9
2016-04-18T01:12:49.084Z,91.81
2016-04-18T01:12:59.084Z,91.85
2016-04-18T01:13:09.100Z,91.81
2016-04-18T01:13:19.100Z,91.9
2016-04-18T01:13:29.100Z,91.81
2016-04-18T01:13:39.115Z,91.71
2016-04-18T01:13:49.118Z,91.71
2016-04-18T01:13:59.118Z,91.71
2016-04-18T01:14:09.118Z,91.9
2016-04-18T01:14:19.134Z,92
2016-04-18T01:14:29.134Z,92
2016-04-18T01:14:39.134Z,92
2016-04-18T01:14:49.136Z,92.19
2016-04-18T01:14:59.136Z,92
2016-04-18T01:15:09.152Z,91.62
2016-04-18T01:15:19.152Z,92.19
2016-04-18T01:15:29.152Z,91.9
2016-04-18T01:15:39.167Z,92
2016-04-18T01:15:49.170Z,91.81
2016-04-18T01:15:59.170Z,92.09
2016-04-18T01:16:09.170Z,92
2016-04-18T01:16:19.170Z,91.9
2016-04-18T01:16:29.186Z,92.09
2016-04-18T01:16:39.186Z,92.38
2016-04-18T01:16:49.189Z,92.38
2016-04-18T01:16:59.189Z,92.47
2016-04-18T01:17:09.205Z,92.19
2016-04-18T01:17:19.205Z,92.19
2016-04-18T01:17:29.205Z,92.28
2016-04-18T01:17:39.205Z,92.28
2016-04-18T01:17:49.222Z,92.38
2016-04-18T01:17:59.222Z,92.09
2016-04-18T01:18:09.222Z,92.19
2016-04-18T01:18:19.222Z,92.19
2016-04-18T01:18:29.238Z,92.28
2016-04-18T01:18:39.238Z,92.19
2016-04-18T01:18:49.242Z,92.38
2016-04-18T01:18:59.242Z,92.28
2016-04-18T01:19:09.242Z,92.28
2016-04-18T01:19:19.257Z,92.38
2016-04-18T01:19:29.257Z,92.38
2016-04-18T01:19:39.273Z,92.19
2016-04-18T01:19:49.259Z,92
2016-04-18T01:19:59.275Z,92
2016-04-18T01:20:09.275Z,92.19
2016-04-18T01:20:19.275Z,92.19
2016-04-18T01:20:29.291Z,92
2016-04-18T01:20:39.306Z,92
2016-04-18T01:20:49.293Z,92.19
2016-04-18T01:20:59.293Z,92.19
2016-04-18T01:21:09.308Z,92.28
2016-04-18T01:21:19.308Z,91.81
2016-04-18T01:21:29.308Z,91.9
2016-04-18T01:21:39.324Z,92.38
2016-04-18T01:21:49.328Z,92.09
2016-04-18T01:21:59.328Z,92.38
2016-04-18T01:22:09.328Z,92.66
2016-04-18T01:22:19.328Z,92.09
2016-04-18T01:22:29.328Z,92.66
2016-04-18T01:22:39.344Z,92.66
2016-04-18T01:22:49.346Z,92.38
2016-04-18T01:22:59.346Z,92.76
2016-04-18T01:23:09.361Z,92.38
2016-04-18T01:23:19.361Z,92.47
2016-04-18T01:23:29.361Z,92.38
2016-04-18T01:23:39.361Z,92.47
2016-04-18T01:23:49.535Z,92.57
2016-04-18T01:23:59.379Z,92.57
2016-04-18T01:24:09.379Z,92.57
2016-04-18T01:24:19.379Z,92.57
2016-04-18T01:24:29.394Z,92.66
2016-04-18T01:24:39.394Z,92.76
2016-04-18T01:24:49.398Z,92.76
2016-04-18T01:24:59.398Z,92.66
2016-04-18T01:25:09.398Z,92.76
2016-04-18T01:25:19.414Z,92.76
2016-04-18T01:25:29.414Z,92.66
2016-04-18T01:25:39.414Z,92.47
2016-04-18T01:25:49.417Z,92.47
2016-04-18T01:25:59.433Z,92.57
2016-04-18T01:26:09.433Z,92.47
2016-04-18T01:26:19.433Z,92.66
2016-04-18T01:26:29.433Z,92.66
2016-04-18T01:26:39.448Z,92.66
2016-04-18T01:26:49.449Z,92.66
2016-04-18T01:26:59.449Z,92.66
2016-04-18T01:27:09.449Z,92.66
2016-04-18T01:27:19.465Z,92.57
2016-04-18T01:27:29.465Z,92.66
2016-04-18T01:27:39.465Z,92.47
2016-04-18T01:27:49.469Z,92.47
2016-04-18T01:27:59.469Z,92.66
2016-04-18T01:28:09.485Z,92.47
2016-04-18T01:28:19.485Z,92.76
2016-04-18T01:28:29.485Z,92.76
2016-04-18T01:28:39.500Z,92.66
2016-04-18T01:28:49.502Z,92.47
2016-04-18T01:28:59.502Z,92.47
2016-04-18T01:29:09.502Z,92.47
2016-04-18T01:29:19.518Z,92.66
2016-04-18T01:29:29.518Z,92.47
2016-04-18T01:29:39.518Z,92.66
2016-04-18T01:29:49.536Z,92.57
2016-04-18T01:29:59.536Z,92.66
2016-04-18T01:30:09.536Z,92.57
2016-04-18T01:30:19.536Z,92.47
2016-04-18T01:30:29.536Z,92.47
2016-04-18T01:30:39.552Z,92.66
2016-04-18T01:30:49.555Z,92.57
2016-04-18T01:30:59.555Z,92.47
2016-04-18T01:31:09.571Z,92.38
2016-04-18T01:31:19.571Z,92.38
2016-04-18T01:31:29.571Z,92.57
2016-04-18T01:31:39.571Z,92.57
2016-04-18T01:31:49.573Z,92.57
2016-04-18T01:31:59.573Z,92.28
2016-04-18T01:32:09.588Z,92.47
2016-04-18T01:32:19.588Z,92.38
2016-04-18T01:32:29.588Z,92.38
2016-04-18T01:32:39.604Z,92.38
2016-04-18T01:32:49.607Z,92.28
2016-04-18T01:32:59.607Z,92.66
2016-04-18T01:33:09.607Z,92.28
2016-04-18T01:33:19.623Z,92.38
2016-04-18T01:33:29.623Z,92.38
2016-04-18T01:33:39.623Z,92.47
2016-04-18T01:33:49.641Z,92.85
2016-04-18T01:33:59.641Z,93.04
2016-04-18T01:34:09.641Z,92.57
2016-04-18T01:34:19.641Z,92.47
2016-04-18T01:34:29.641Z,93.23
2016-04-18T01:34:39.641Z,93.04
2016-04-18T01:34:49.644Z,93.13
2016-04-18T01:34:59.660Z,92.94
2016-04-18T01:35:09.660Z,93.13
2016-04-18T01:35:19.660Z,92.94
2016-04-18T01:35:29.675Z,93.04
2016-04-18T01:35:39.691Z,93.04
2016-04-18T01:35:49.677Z,92.85
2016-04-18T01:35:59.677Z,92.76
2016-04-18T01:36:09.693Z,92.85
2016-04-18T01:36:19.693Z,92.85
2016-04-18T01:36:29.693Z,92.94
2016-04-18T01:36:39.693Z,92.85
2016-04-18T01:36:49.712Z,92.76
2016-04-18T01:36:59.712Z,92.85
2016-04-18T01:37:09.712Z,92.66
2016-04-18T01:37:19.712Z,92.66
2016-04-18T01:37:29.712Z,92.85
2016-04-18T01:37:39.727Z,92.85
2016-04-18T01:37:49.729Z,93.04
2016-04-18T01:37:59.729Z,93.04
2016-04-18T01:38:09.729Z,92.85
2016-04-18T01:38:19.745Z,93.04
2016-04-18T01:38:29.745Z,93.04
2016-04-18T01:38:39.745Z,92.85
2016-04-18T01:38:49.810Z,93.13
2016-04-18T01:38:59.810Z,93.04
2016-04-18T01:39:09.764Z,92.94
2016-04-18T01:39:19.764Z,92.66
2016-04-18T01:39:29.779Z,92.66
2016-04-18T01:39:39.779Z,92.76
2016-04-18T01:39:49.781Z,92.76
2016-04-18T01:39:59.781Z,92.85
2016-04-18T01:40:09.781Z,93.32
2016-04-18T01:40:19.797Z,93.51
2016-04-18T01:40:29.797Z,93.04
2016-04-18T01:40:39.797Z,93.32
2016-04-18T01:40:49.816Z,93.32
2016-04-18T01:40:59.816Z,93.32
2016-04-18T01:41:09.816Z,93.32
2016-04-18T01:41:19.816Z,93.13
2016-04-18T01:41:29.832Z,93.13
2016-04-18T01:41:39.832Z,93.13
2016-04-18T01:41:49.834Z,93.23
2016-04-18T01:41:59.834Z,93.32
2016-04-18T01:42:09.850Z,93.04
2016-04-18T01:42:19.850Z,93.04
2016-04-18T01:42:29.850Z,93.13
2016-04-18T01:42:39.850Z,93.13
2016-04-18T01:42:49.868Z,93.32
2016-04-18T01:42:59.868Z,93.23
2016-04-18T01:43:09.868Z,93.23
2016-04-18T01:43:19.868Z,93.04
2016-04-18T01:43:29.868Z,93.51
2016-04-18T01:43:39.884Z,93.04
2016-04-18T01:43:49.887Z,93.13
2016-04-18T01:43:59.887Z,93.13
2016-04-18T01:44:09.887Z,93.32
2016-04-18T01:44:19.903Z,93.32
2016-04-18T01:44:29.903Z,93.23
2016-04-18T01:44:39.903Z,93.32
2016-04-18T01:44:49.906Z,93.32
2016-04-18T01:44:59.921Z,93.32
2016-04-18T01:45:09.921Z,93.7
2016-04-18T01:45:19.921Z,93.61
2016-04-18T01:45:29.937Z,93.42
2016-04-18T01:45:39.937Z,93.23
2016-04-18T01:45:49.939Z,93.61
2016-04-18T01:45:59.939Z,93.32
2016-04-18T01:46:09.939Z,93.32
2016-04-18T01:46:19.954Z,93.51
2016-04-18T01:46:29.954Z,93.51
2016-04-18T01:46:39.954Z,93.51
2016-04-18T01:46:49.957Z,93.61
2016-04-18T01:46:59.957Z,93.51
2016-04-18T01:47:09.973Z,93.51
2016-04-18T01:47:19.973Z,93.51
2016-04-18T01:47:29.989Z,93.23
2016-04-18T01:47:39.973Z,93.23
2016-04-18T01:47:49.991Z,93.42
2016-04-18T01:47:59.991Z,93.51
2016-04-18T01:48:10.006Z,93.42
2016-04-18T01:48:20.006Z,93.32
2016-04-18T01:48:30.006Z,93.32
2016-04-18T01:48:40.006Z,93.8
2016-04-18T01:48:50.009Z,93.61
2016-04-18T01:49:00.025Z,93.61
2016-04-18T01:49:10.025Z,93.89
2016-04-18T01:49:20.025Z,93.7
2016-04-18T01:49:30.025Z,93.51
2016-04-18T01:49:40.025Z,93.61
2016-04-18T01:49:50.043Z,93.61
2016-04-18T01:50:00.043Z,93.7
2016-04-18T01:50:10.043Z,93.61
2016-04-18T01:50:20.043Z,93.8
2016-04-18T01:50:30.058Z,93.7
2016-04-18T01:50:40.058Z,93.7
2016-04-18T01:50:50.061Z,93.7
2016-04-18T01:51:00.061Z,93.7
2016-04-18T01:51:10.077Z,93.8
2016-04-18T01:51:20.077Z,93.8
2016-04-18T01:51:30.077Z,93.51
2016-04-18T01:51:40.092Z,93.51
2016-04-18T01:51:50.095Z,93.61
2016-04-18T01:52:00.095Z,93.51
2016-04-18T01:52:10.095Z,93.8
2016-04-18T01:52:20.095Z,93.8
2016-04-18T01:52:30.111Z,93.42
2016-04-18T01:52:40.111Z,93.8
2016-04-18T01:52:50.114Z,93.32
2016-04-18T01:53:00.114Z,93.8
2016-04-18T01:53:10.114Z,93.61
2016-04-18T01:53:20.130Z,93.8
2016-04-18T01:53:30.130Z,93.89
2016-04-18T01:53:39.380Z,93.89
2016-04-18T01:53:50.132Z,93.7
2016-04-18T01:54:00.147Z,93.8
2016-04-18T01:54:10.085Z,93.8
2016-04-18T01:54:20.147Z,93.8
2016-04-18T01:54:30.147Z,93.8
2016-04-18T01:54:40.163Z,93.8
2016-04-18T01:54:50.166Z,93.8
2016-04-18T01:55:00.182Z,93.99
2016-04-18T01:55:10.182Z,93.89
2016-04-18T01:55:20.182Z,93.61
2016-04-18T01:55:30.182Z,93.51
2016-04-18T01:55:40.182Z,93.89
2016-04-18T01:55:50.185Z,93.7
2016-04-18T01:56:00.200Z,93.61
2016-04-18T01:56:10.200Z,93.99
2016-04-18T01:56:20.200Z,93.42
2016-04-18T01:56:30.200Z,93.61
2016-04-18T01:56:40.216Z,93.99
2016-04-18T01:56:50.219Z,93.7
2016-04-18T01:57:00.219Z,93.61
2016-04-18T01:57:10.234Z,94.18
2016-04-18T01:57:20.234Z,93.99
2016-04-18T01:57:30.234Z,94.18
2016-04-18T01:57:40.234Z,94.18
2016-04-18T01:57:50.236Z,94.18
2016-04-18T01:58:00.252Z,94.08
2016-04-18T01:58:10.252Z,94.18
2016-04-18T01:58:19.486Z,94.18
2016-04-18T01:58:30.252Z,93.13
2016-04-18T01:58:40.252Z,94.18
2016-04-18T01:58:50.271Z,94.18
2016-04-18T01:59:00.286Z,93.7
2016-04-18T01:59:10.271Z,93.7
2016-04-18T01:59:20.271Z,94.27
2016-04-18T01:59:30.286Z,94.08
2016-04-18T01:59:40.286Z,93.7
2016-04-18T01:59:50.288Z,94.18
2016-04-18T02:00:00.288Z,93.99
2016-04-18T02:00:10.304Z,94.08
2016-04-18T02:00:20.304Z,93.89
2016-04-18T02:00:30.304Z,93.8
2016-04-18T02:00:40.304Z,93.89
2016-04-18T02:00:50.323Z,93.7
2016-04-18T02:01:00.338Z,94.08
2016-04-18T02:01:10.323Z,93.99
2016-04-18T02:01:20.338Z,93.99
2016-04-18T02:01:30.338Z,93.89
2016-04-18T02:01:40.338Z,93.99
2016-04-18T02:01:50.341Z,93.94
2016-04-18T02:02:00.341Z,93.8
2016-04-18T02:02:10.357Z,93.7
2016-04-18T02:02:20.357Z,94.08
2016-04-18T02:02:30.357Z,93.42
2016-04-18T02:02:40.357Z,93.89
2016-04-18T02:02:50.359Z,94.18
2016-04-18T02:03:00.374Z,93.99
2016-04-18T02:03:10.374Z,93.99
2016-04-18T02:03:20.374Z,94.18
2016-04-18T02:03:30.374Z,93.99
2016-04-18T02:03:40.390Z,93.7
2016-04-18T02:03:50.394Z,93.89
2016-04-18T02:04:00.394Z,93.89
2016-04-18T02:04:10.394Z,94.18
2016-04-18T02:04:20.410Z,93.51
2016-04-18T02:04:30.410Z,94.27
2016-04-18T02:04:40.410Z,94.18
2016-04-18T02:04:50.412Z,93.99
2016-04-18T02:05:00.427Z,94.27
2016-04-18T02:05:10.427Z,93.89
2016-04-18T02:05:20.427Z,94.18
2016-04-18T02:05:30.443Z,94.08
2016-04-18T02:05:40.443Z,93.89
2016-04-18T02:05:50.445Z,94.08
2016-04-18T02:06:00.445Z,93.99
2016-04-18T02:06:10.461Z,94.08
2016-04-18T02:06:20.461Z,93.99
2016-04-18T02:06:30.461Z,93.32
2016-04-18T02:06:40.461Z,93.99
2016-04-18T02:06:50.479Z,94.08
2016-04-18T02:07:00.479Z,93.99
2016-04-18T02:07:10.479Z,93.8
2016-04-18T02:07:20.479Z,93.32
2016-04-18T02:07:30.479Z,94.08
2016-04-18T02:07:40.495Z,93.61
2016-04-18T02:07:50.499Z,94.08
2016-04-18T02:08:00.499Z,93.32
2016-04-18T02:08:10.499Z,93.99
2016-04-18T02:08:20.514Z,93.99
2016-04-18T02:08:30.514Z,93.99
2016-04-18T02:08:40.514Z,93.99
2016-04-18T02:08:50.516Z,93.99
2016-04-18T02:09:00.532Z,93.51
2016-04-18T02:09:10.595Z,93.99
2016-04-18T02:09:20.532Z,93.99
2016-04-18T02:09:30.532Z,93.32